Time;durP1;ratioP1;P1;durP2;ratioP2;P2;SDS_P1;SDS_P2;PMS_P1;PMS_P2;Temp;Humidity;BMP_temperature;BMP_pressure;BME280_temperature;BME280_humidity;BME280_pressure;Samples;Min_cycle;Max_cycle;Signal;HPM_P1;HPM_P2
2022/10/07 00:00:26;;;;;;;2.47;2.27;;;;;;;11.98;74.83;95942.75;5095520;28;20442;-77
2022/10/07 00:02:52;;;;;;;5.00;3.23;;;;;;;11.95;73.97;95943.00;5094815;28;20453;-77
2022/10/07 00:05:19;;;;;;;3.10;2.20;;;;;;;11.94;74.36;95949.22;5095096;28;20455;-77
2022/10/07 00:07:47;;;;;;;2.77;2.57;;;;;;;11.90;74.11;95950.38;5094471;28;20443;-77
2022/10/07 00:10:14;;;;;;;3.67;3.23;;;;;;;11.87;75.42;95945.34;5094518;28;20443;-77
2022/10/07 00:12:41;;;;;;;3.93;2.40;;;;;;;11.84;74.49;95940.28;5094688;28;20829;-77
2022/10/07 00:15:09;;;;;;;4.13;2.87;;;;;;;11.78;74.85;95944.22;5094695;28;20443;-77
2022/10/07 00:17:36;;;;;;;5.03;3.17;;;;;;;11.77;74.88;95948.59;5058978;28;20482;-77
2022/10/07 00:20:02;;;;;;;3.87;3.10;;;;;;;11.75;75.17;95950.50;5042484;28;20443;-77
2022/10/07 00:22:29;;;;;;;5.07;2.53;;;;;;;11.71;75.53;95949.06;5094535;28;20447;-77
2022/10/07 00:24:58;;;;;;;3.60;3.30;;;;;;;11.59;75.36;95936.81;5094400;28;20447;-77
2022/10/07 00:27:24;;;;;;;2.97;2.67;;;;;;;11.59;75.84;95936.81;5094570;28;20447;-77
2022/10/07 00:29:51;;;;;;;4.60;3.07;;;;;;;11.57;75.40;95943.97;5094535;28;20439;-77
2022/10/07 00:32:18;;;;;;;2.60;2.40;;;;;;;11.53;75.76;95933.75;5094330;28;20454;-77
2022/10/07 00:34:45;;;;;;;2.57;2.37;;;;;;;11.53;76.27;95937.22;5094000;28;20485;-77
2022/10/07 00:37:11;;;;;;;2.90;2.53;;;;;;;11.51;76.40;95930.41;5094197;28;20493;-77
2022/10/07 00:39:38;;;;;;;3.67;2.93;;;;;;;11.46;75.68;95928.94;5094130;28;20862;-77
2022/10/07 00:42:06;;;;;;;4.30;2.80;;;;;;;11.34;77.27;95927.19;5094268;28;20948;-77
2022/10/07 00:44:40;;;;;;;4.03;3.03;;;;;;;11.38;77.11;95933.91;5093917;28;20447;-77
2022/10/07 00:47:12;;;;;;;2.50;2.30;;;;;;;11.28;76.96;95925.00;5093922;28;20454;-77
2022/10/07 00:49:43;;;;;;;3.00;2.80;;;;;;;11.26;77.35;95926.88;5042992;28;20451;-77
2022/10/07 00:52:11;;;;;;;4.60;2.60;;;;;;;11.25;77.79;95932.25;5093828;28;20474;-77
2022/10/07 00:54:38;;;;;;;3.50;3.00;;;;;;;11.21;77.43;95915.03;5093765;28;20445;-77
2022/10/07 00:57:07;;;;;;;3.63;3.17;;;;;;;11.20;78.10;95922.06;5041685;28;20478;-77
2022/10/07 00:59:38;;;;;;;5.93;2.37;;;;;;;11.18;77.95;95919.56;5092869;28;20468;-77
2022/10/07 01:02:05;;;;;;;3.53;3.20;;;;;;;11.17;77.96;95915.25;5043688;28;20532;-77
2022/10/07 01:04:33;;;;;;;4.77;3.10;;;;;;;11.13;79.11;95924.28;5093938;28;20442;-78
2022/10/07 01:06:59;;;;;;;3.43;2.73;;;;;;;11.14;78.85;95912.84;5058186;28;20445;-76
2022/10/07 01:09:26;;;;;;;3.17;2.80;;;;;;;11.11;78.93;95918.31;5093617;28;20497;-77
2022/10/07 01:12:00;;;;;;;3.57;3.13;;;;;;;11.10;78.64;95919.25;5093675;28;20454;-77
2022/10/07 01:14:43;;;;;;;4.40;3.30;;;;;;;11.12;77.91;95920.00;5093750;28;20449;-76
2022/10/07 01:17:16;;;;;;;3.87;3.20;;;;;;;11.14;78.85;95910.22;5093611;28;20508;-76
2022/10/07 01:20:03;;;;;;;3.77;3.17;;;;;;;11.16;79.00;95913.56;5093262;28;20451;-76
2022/10/07 01:22:41;;;;;;;2.30;2.10;;;;;;;11.13;78.64;95913.78;5057534;28;20477;-76
2022/10/07 01:25:25;;;;;;;2.67;2.47;;;;;;;11.10;78.95;95913.16;5093551;28;20444;-76
2022/10/07 01:27:58;;;;;;;2.83;2.63;;;;;;;11.08;79.47;95905.41;5093378;28;20573;-76
2022/10/07 01:30:25;;;;;;;3.90;3.23;;;;;;;11.08;79.12;95909.81;5093004;28;20846;-76
2022/10/07 01:32:58;;;;;;;3.60;3.23;;;;;;;11.14;78.71;95907.59;5092882;28;20457;-76
2022/10/07 01:35:29;;;;;;;2.80;2.60;;;;;;;11.17;78.65;95917.88;5093105;28;20872;-76
2022/10/07 01:38:00;;;;;;;6.00;3.13;;;;;;;11.17;79.00;95903.91;5092990;28;20896;-78
2022/10/07 01:40:32;;;;;;;6.03;3.07;;;;;;;11.18;78.78;95906.41;5093105;28;20454;-78
2022/10/07 01:43:00;;;;;;;3.23;2.70;;;;;;;11.16;78.94;95910.94;5092971;28;20451;-78
2022/10/07 01:45:30;;;;;;;4.87;3.00;;;;;;;11.13;78.72;95908.53;5092760;28;20454;-76
2022/10/07 01:47:59;;;;;;;3.30;2.80;;;;;;;11.13;79.22;95905.06;5093033;28;20447;-75
2022/10/07 01:50:28;;;;;;;2.93;2.60;;;;;;;11.06;79.18;95902.03;5092851;28;20530;-77
2022/10/07 01:53:16;;;;;;;3.93;2.70;;;;;;;11.04;79.20;95897.84;5093281;28;20565;-76
2022/10/07 01:55:56;;;;;;;3.27;2.53;;;;;;;11.00;80.27;95905.09;5092613;28;20523;-76
2022/10/07 01:58:38;;;;;;;5.13;2.47;;;;;;;10.95;80.21;95898.47;5092866;28;20846;-78
2022/10/07 02:01:13;;;;;;;3.67;3.37;;;;;;;10.92;80.04;95899.53;5092653;28;20793;-78
2022/10/07 02:04:02;;;;;;;2.90;2.70;;;;;;;10.82;80.56;95898.50;5092700;28;20937;-77
2022/10/07 02:06:41;;;;;;;5.50;3.50;;;;;;;10.74;80.11;95893.78;5092455;28;21017;-78
2022/10/07 02:09:20;;;;;;;3.47;2.90;;;;;;;10.77;80.76;95903.25;5092473;28;20453;-78
2022/10/07 02:11:52;;;;;;;2.97;2.67;;;;;;;10.79;80.41;95902.19;5092527;28;20476;-78
2022/10/07 02:14:24;;;;;;;3.40;2.73;;;;;;;10.90;80.38;95904.06;5092473;28;20449;-78
2022/10/07 02:16:55;;;;;;;2.90;2.30;;;;;;;10.92;81.13;95898.69;5041315;28;20534;-78
2022/10/07 02:19:25;;;;;;;3.47;3.10;;;;;;;10.91;80.57;95907.50;5092394;28;20454;-78
2022/10/07 02:21:56;;;;;;;4.93;2.90;;;;;;;10.90;80.21;95911.09;5092483;28;20446;-77
2022/10/07 02:24:28;;;;;;;4.10;3.30;;;;;;;10.94;79.95;95912.56;5092447;28;21191;-78
2022/10/07 02:26:57;;;;;;;3.60;3.30;;;;;;;10.97;80.76;95913.16;5092283;28;20815;-78
2022/10/07 02:29:27;;;;;;;4.60;3.00;;;;;;;10.96;80.45;95910.66;5092201;28;20446;-78
2022/10/07 02:31:58;;;;;;;3.30;3.00;;;;;;;10.95;80.78;95912.44;5092525;28;20465;-78
2022/10/07 02:34:28;;;;;;;3.17;2.93;;;;;;;10.97;79.99;95915.81;5092067;28;20510;-78
2022/10/07 02:36:59;;;;;;;3.97;2.83;;;;;;;10.99;80.10;95911.31;5092151;28;20479;-78
2022/10/07 02:39:26;;;;;;;4.13;3.10;;;;;;;10.99;80.50;95906.06;5092152;28;20519;-78
2022/10/07 02:42:02;;;;;;;5.13;3.33;;;;;;;10.96;80.89;95910.66;5092024;28;20446;-78
2022/10/07 02:44:36;;;;;;;4.13;2.90;;;;;;;10.87;80.98;95914.78;5092140;28;20452;-78
2022/10/07 02:47:07;;;;;;;5.80;3.80;;;;;;;10.92;80.74;95919.69;5091348;28;20900;-78
2022/10/07 02:49:37;;;;;;;4.37;3.37;;;;;;;10.84;80.75;95913.19;5092103;28;20202;-75
2022/10/07 02:52:07;;;;;;;3.23;2.90;;;;;;;10.77;81.00;95908.50;5091850;28;20495;-78
2022/10/07 02:54:40;;;;;;;4.07;3.27;;;;;;;10.74;81.61;95919.22;5092018;28;20458;-77
2022/10/07 02:57:09;;;;;;;3.10;2.83;;;;;;;10.76;81.68;95914.69;5091994;28;20477;-78
2022/10/07 02:59:39;;;;;;;3.83;3.43;;;;;;;10.76;81.78;95915.53;5092069;28;20453;-78
2022/10/07 03:02:11;;;;;;;3.30;3.10;;;;;;;10.79;81.30;95915.31;5091964;28;20445;-78
2022/10/07 03:04:38;;;;;;;4.03;3.00;;;;;;;10.80;82.00;95913.53;5091763;28;20446;-78
2022/10/07 03:07:08;;;;;;;3.93;2.90;;;;;;;10.74;81.88;95914.78;5091910;28;20449;-78
2022/10/07 03:09:35;;;;;;;9.40;3.53;;;;;;;10.70;81.88;95915.97;5091954;28;20446;-78
2022/10/07 03:12:02;;;;;;;6.13;3.20;;;;;;;10.63;82.24;95909.44;5098422;28;20471;-78
2022/10/07 03:14:29;;;;;;;5.20;3.57;;;;;;;10.62;82.19;95920.88;5093956;28;20745;-78
2022/10/07 03:16:57;;;;;;;4.77;3.40;;;;;;;10.64;82.56;95915.50;5104806;28;20485;-78
2022/10/07 03:19:24;;;;;;;4.30;3.90;;;;;;;10.62;83.02;95906.91;5111970;28;20942;-78
2022/10/07 03:21:52;;;;;;;3.40;3.20;;;;;;;10.61;82.31;95915.72;5095704;28;20454;-78
2022/10/07 03:24:19;;;;;;;4.97;3.37;;;;;;;10.61;82.83;95913.09;5116012;28;20445;-78
2022/10/07 03:26:49;;;;;;;3.87;2.90;;;;;;;10.60;82.62;95909.63;5115966;28;20449;-78
2022/10/07 03:29:16;;;;;;;3.80;3.50;;;;;;;10.58;83.17;95911.53;5115727;28;21008;-78
2022/10/07 03:31:43;;;;;;;12.67;3.97;;;;;;;10.58;82.72;95901.03;5115649;28;20816;-78
2022/10/07 03:34:11;;;;;;;3.70;3.40;;;;;;;10.54;83.79;95902.19;5115927;28;20453;-78
2022/10/07 03:36:38;;;;;;;3.83;3.53;;;;;;;10.53;83.53;95905.75;5115779;28;20456;-78
2022/10/07 03:39:05;;;;;;;4.03;3.67;;;;;;;10.51;82.89;95907.66;5115613;28;20486;-78
2022/10/07 03:41:32;;;;;;;14.10;4.03;;;;;;;10.49;83.27;95896.44;5062912;28;20798;-78
2022/10/07 03:43:58;;;;;;;3.83;3.53;;;;;;;10.46;83.72;95900.09;5115714;28;20855;-78
2022/10/07 03:46:25;;;;;;;11.83;3.50;;;;;;;10.38;83.61;95902.38;5115627;28;20446;-78
2022/10/07 03:48:52;;;;;;;6.80;3.53;;;;;;;10.36;84.03;95904.28;5115585;28;20435;-78
2022/10/07 03:51:20;;;;;;;3.50;3.20;;;;;;;10.35;83.48;95896.50;5115318;28;20468;-78
2022/10/07 03:53:48;;;;;;;4.03;3.07;;;;;;;10.35;83.63;95905.22;5115187;28;20455;-78
2022/10/07 03:56:14;;;;;;;3.73;3.30;;;;;;;10.40;84.08;95912.78;5115460;28;20524;-78
2022/10/07 03:58:41;;;;;;;4.10;3.50;;;;;;;10.45;83.61;95914.16;5115449;28;20604;-78
2022/10/07 04:01:10;;;;;;;4.77;3.90;;;;;;;10.47;83.43;95912.28;5115346;28;20455;-78
2022/10/07 04:03:37;;;;;;;4.60;3.43;;;;;;;10.50;83.09;95914.69;5115332;28;20447;-78
2022/10/07 04:06:04;;;;;;;7.00;3.97;;;;;;;10.50;83.78;95913.84;5115159;28;20445;-78
2022/10/07 04:08:33;;;;;;;6.73;4.00;;;;;;;10.45;83.32;95911.53;5062407;28;20440;-78
2022/10/07 04:11:01;;;;;;;4.43;4.03;;;;;;;10.39;83.14;95913.72;5115183;28;20785;-78
2022/10/07 04:13:28;;;;;;;4.80;3.60;;;;;;;10.41;83.49;95910.06;5115120;28;20501;-78
2022/10/07 04:15:55;;;;;;;4.73;4.20;;;;;;;10.36;83.38;95906.91;5115172;28;20440;-78
2022/10/07 04:18:23;;;;;;;4.37;3.70;;;;;;;10.28;83.28;95903.97;5115158;28;20881;-76
2022/10/07 04:20:50;;;;;;;4.50;3.33;;;;;;;10.22;84.11;95907.00;5114760;28;20440;-78
2022/10/07 04:23:17;;;;;;;3.53;3.23;;;;;;;10.16;84.57;95910.84;5114830;28;20451;-78
2022/10/07 04:25:45;;;;;;;5.97;4.00;;;;;;;10.15;84.75;95910.94;5114519;28;20493;-75
2022/10/07 04:28:17;;;;;;;5.70;4.07;;;;;;;10.14;85.33;95910.13;5114494;28;20439;-78
2022/10/07 04:30:50;;;;;;;7.30;4.00;;;;;;;10.12;85.49;95904.13;5116195;28;20443;-77
2022/10/07 04:33:17;;;;;;;6.80;4.27;;;;;;;10.10;85.30;95910.38;5114318;28;20442;-78
2022/10/07 04:35:44;;;;;;;9.43;4.23;;;;;;;10.12;85.48;95906.75;5113295;28;20448;-78
2022/10/07 04:38:12;;;;;;;4.90;4.50;;;;;;;10.16;85.50;95910.00;5114193;28;20487;-75
2022/10/07 04:40:40;;;;;;;9.10;5.20;;;;;;;10.22;85.54;95905.22;5114854;28;20452;-77
2022/10/07 04:43:22;;;;;;;6.77;3.97;;;;;;;10.23;85.38;95906.91;5114614;28;20531;-78
2022/10/07 04:45:52;;;;;;;7.83;4.03;;;;;;;10.24;85.70;95912.97;5114355;28;20444;-77
2022/10/07 04:48:20;;;;;;;5.87;4.63;;;;;;;10.29;85.30;95905.63;5114707;28;20486;-79
2022/10/07 04:50:47;;;;;;;5.17;4.60;;;;;;;10.33;85.61;95919.38;5114191;28;20786;-78
2022/10/07 04:53:16;;;;;;;4.27;3.93;;;;;;;10.35;85.14;95910.47;5114026;28;20480;-77
2022/10/07 04:55:45;;;;;;;8.80;3.97;;;;;;;10.36;85.92;95912.16;5114313;28;20444;-77
2022/10/07 04:58:13;;;;;;;14.33;4.83;;;;;;;10.43;84.97;95923.09;5077888;28;21024;-78
2022/10/07 05:00:45;;;;;;;5.63;4.80;;;;;;;10.48;85.76;95916.56;5113758;28;20477;-78
2022/10/07 05:03:12;;;;;;;7.43;5.00;;;;;;;10.48;85.24;95911.31;5113749;28;20452;-78
2022/10/07 05:05:43;;;;;;;10.70;4.40;;;;;;;10.56;85.06;95921.28;5114045;28;20451;-78
2022/10/07 05:08:10;;;;;;;12.93;5.33;;;;;;;10.70;85.55;95915.97;5077812;28;20449;-78
2022/10/07 05:10:38;;;;;;;16.37;4.70;;;;;;;10.86;84.54;95920.97;5077704;28;20436;-76
2022/10/07 05:13:06;;;;;;;8.50;4.10;;;;;;;11.09;84.51;95927.25;5113648;28;20958;-76
2022/10/07 05:15:34;;;;;;;9.97;4.70;;;;;;;11.65;85.72;95931.09;5113793;28;20446;-77
2022/10/07 05:18:01;;;;;;;13.03;4.67;;;;;;;12.66;83.50;95936.75;5113734;28;20508;-76
2022/10/07 05:20:28;;;;;;;19.00;5.70;;;;;;;13.75;76.52;95939.63;5113307;28;21008;-76
2022/10/07 05:22:55;;;;;;;9.13;5.33;;;;;;;14.75;71.44;95947.19;5113416;28;20454;-77
2022/10/07 05:25:21;;;;;;;8.10;5.20;;;;;;;15.43;67.57;95953.63;5113822;28;20929;-78
2022/10/07 05:27:53;;;;;;;6.10;4.27;;;;;;;16.10;65.17;95960.91;5099478;28;20503;-77
2022/10/07 05:30:21;;;;;;;7.00;4.40;;;;;;;16.66;67.36;95954.13;5112702;28;20435;-77
2022/10/07 05:32:50;;;;;;;4.37;2.80;;;;;;;17.05;64.15;95957.53;5077478;28;20446;-77
2022/10/07 05:35:17;;;;;;;6.60;3.30;;;;;;;17.28;58.50;95958.03;5105544;28;20820;-77
2022/10/07 05:37:44;;;;;;;3.90;2.87;;;;;;;17.57;57.32;95963.22;5099663;28;21054;-77
2022/10/07 05:40:11;;;;;;;3.97;3.60;;;;;;;17.97;55.38;95962.09;5098635;28;20448;-76
2022/10/07 05:42:38;;;;;;;4.53;3.50;;;;;;;18.40;54.14;95956.88;5105503;28;20451;-76
2022/10/07 05:45:06;;;;;;;5.20;3.50;;;;;;;18.54;53.35;95950.22;5041168;28;20493;-75
2022/10/07 05:47:33;;;;;;;3.20;2.87;;;;;;;18.68;52.36;95962.13;5092593;28;20435;-76
2022/10/07 05:50:01;;;;;;;12.60;4.60;;;;;;;18.85;52.21;95963.97;5042804;28;20466;-77
2022/10/07 05:52:29;;;;;;;4.30;3.37;;;;;;;19.01;51.26;95961.41;5113042;28;20478;-76
2022/10/07 05:54:56;;;;;;;9.73;3.90;;;;;;;19.13;50.66;95957.50;5100355;28;20452;-77
2022/10/07 05:57:22;;;;;;;4.77;3.80;;;;;;;19.17;50.72;95960.69;5092143;28;20432;-77
2022/10/07 05:59:50;;;;;;;4.00;3.50;;;;;;;19.25;50.44;95963.38;5092344;28;20479;-77
2022/10/07 06:02:19;;;;;;;3.50;3.20;;;;;;;19.43;50.10;95958.84;5112015;28;20443;-77
2022/10/07 06:04:47;;;;;;;8.97;3.97;;;;;;;19.53;49.83;95963.22;5112063;28;20508;-77
2022/10/07 06:07:16;;;;;;;3.47;3.17;;;;;;;19.70;50.07;95960.50;5111894;28;20446;-77
2022/10/07 06:15:11;;;;;;;5.80;4.77;;;;;;;19.56;51.31;95957.59;5101516;28;20443;-77
2022/10/07 06:17:42;;;;;;;11.00;4.07;;;;;;;19.67;51.30;95954.69;5108768;28;20603;-78
2022/10/07 06:20:10;;;;;;;5.00;3.90;;;;;;;19.87;51.19;95956.06;5109254;28;20547;-77
2022/10/07 06:22:38;;;;;;;5.63;4.77;;;;;;;19.86;50.52;95959.72;5109093;28;20432;-77
2022/10/07 06:25:06;;;;;;;10.30;4.57;;;;;;;20.02;51.22;95962.47;5103523;28;20901;-77
2022/10/07 06:27:33;;;;;;;5.30;4.80;;;;;;;20.18;50.16;95956.31;5113301;28;20474;-78
2022/10/07 06:30:00;;;;;;;8.77;5.03;;;;;;;20.34;50.50;95953.72;5113102;28;20447;-78
2022/10/07 06:32:29;;;;;;;39.17;7.60;;;;;;;20.56;49.54;95954.09;5113460;28;20447;-78
2022/10/07 06:34:56;;;;;;;20.83;6.93;;;;;;;20.76;50.13;95963.44;5113089;28;20516;-77
2022/10/07 06:37:23;;;;;;;17.00;6.93;;;;;;;20.98;48.88;95957.44;5112996;28;20439;-77
2022/10/07 06:39:51;;;;;;;7.97;5.20;;;;;;;20.99;48.13;95948.44;5113078;28;20486;-78
2022/10/07 06:42:18;;;;;;;25.50;6.23;;;;;;;21.21;48.58;95967.44;5113172;28;20454;-77
2022/10/07 06:44:44;;;;;;;7.63;6.33;;;;;;;21.28;47.13;95976.44;5113398;28;21005;-78
2022/10/07 06:47:11;;;;;;;9.50;4.40;;;;;;;21.26;47.64;95971.28;5112921;28;20830;-77
2022/10/07 06:49:38;;;;;;;13.23;4.20;;;;;;;21.30;47.21;95985.94;5112964;28;20451;-77
2022/10/07 06:52:05;;;;;;;5.73;4.03;;;;;;;21.25;47.75;95980.28;5113001;28;20502;-77
2022/10/07 06:54:32;;;;;;;9.03;4.83;;;;;;;21.05;47.69;95981.59;5112903;28;20836;-77
2022/10/07 06:57:01;;;;;;;6.80;5.40;;;;;;;20.98;47.99;95983.28;5112559;28;20443;-77
2022/10/07 06:59:27;;;;;;;8.57;5.07;;;;;;;20.90;48.85;95984.13;5116366;28;20532;-77
2022/10/07 07:01:54;;;;;;;6.93;5.07;;;;;;;21.05;48.16;95984.28;5116595;28;20466;-78
2022/10/07 07:04:21;;;;;;;6.70;5.00;;;;;;;21.23;48.59;95978.75;5116454;28;20941;-78
2022/10/07 07:06:48;;;;;;;10.63;5.60;;;;;;;21.46;48.41;95981.59;5116365;28;20447;-78
2022/10/07 07:09:14;;;;;;;9.10;6.30;;;;;;;21.53;48.16;95980.75;5116550;28;20442;-78
2022/10/07 07:11:43;;;;;;;13.07;7.37;;;;;;;21.51;48.53;95984.59;5116278;28;20439;-78
2022/10/07 07:14:12;;;;;;;24.83;7.00;;;;;;;21.24;48.51;95983.13;5116227;28;20474;-77
2022/10/07 07:16:39;;;;;;;14.73;8.07;;;;;;;20.92;49.86;95981.28;5115743;28;20523;-78
2022/10/07 07:19:10;;;;;;;11.47;6.07;;;;;;;20.84;50.50;95970.63;5116061;28;20490;-77
2022/10/07 07:21:39;;;;;;;16.33;7.10;;;;;;;20.54;51.17;95977.44;5115909;28;20503;-78
2022/10/07 07:24:06;;;;;;;20.63;8.37;;;;;;;20.53;52.04;95967.75;5115889;28;20490;-78
2022/10/07 07:26:33;;;;;;;15.70;7.17;;;;;;;20.61;51.41;95962.44;5079752;28;20458;-77
2022/10/07 07:29:02;;;;;;;12.60;8.00;;;;;;;20.49;51.48;95967.25;5115605;28;20521;-78
2022/10/07 07:31:32;;;;;;;16.80;7.30;;;;;;;20.52;51.73;95971.41;5115804;28;20445;-78
2022/10/07 07:34:01;;;;;;;19.73;7.87;;;;;;;20.36;51.24;95966.88;5115704;28;20435;-78
2022/10/07 07:36:29;;;;;;;15.80;7.40;;;;;;;20.09;51.99;95971.47;5115496;28;20450;-77
2022/10/07 07:38:58;;;;;;;13.80;5.93;;;;;;;20.24;52.07;95965.50;5079976;28;20486;-78
2022/10/07 07:41:28;;;;;;;11.27;6.63;;;;;;;20.40;51.63;95958.41;5115578;28;20438;-78
2022/10/07 07:43:56;;;;;;;20.00;6.00;;;;;;;20.48;50.87;95964.75;5115512;28;20439;-78
2022/10/07 07:46:26;;;;;;;12.60;6.00;;;;;;;20.59;50.94;95959.09;5115763;28;20499;-77
2022/10/07 07:48:55;;;;;;;10.10;6.40;;;;;;;20.78;50.91;95956.09;5115239;28;20439;-78
2022/10/07 07:51:22;;;;;;;20.13;7.53;;;;;;;20.99;50.11;95958.25;5115093;28;20474;-78
2022/10/07 07:53:51;;;;;;;16.63;6.73;;;;;;;21.13;49.24;95954.09;5115333;28;20447;-78
2022/10/07 07:56:19;;;;;;;15.67;6.87;;;;;;;21.01;49.01;95954.44;5115189;28;20439;-78
2022/10/07 07:58:46;;;;;;;13.00;5.80;;;;;;;20.99;49.91;95955.59;5115316;28;20723;-77
2022/10/07 08:01:15;;;;;;;14.30;7.20;;;;;;;20.98;50.58;95951.25;5115155;28;20941;-77
2022/10/07 08:03:45;;;;;;;12.90;6.00;;;;;;;20.87;50.15;95943.63;5079176;28;20480;-77
2022/10/07 08:06:14;;;;;;;6.13;4.67;;;;;;;20.54;48.01;95942.78;5115123;28;20462;-77
2022/10/07 08:08:42;;;;;;;6.60;4.90;;;;;;;20.63;48.48;95942.59;5114588;28;20434;-77
2022/10/07 08:11:11;;;;;;;7.17;3.90;;;;;;;20.80;48.89;95939.91;5115153;28;20471;-78
2022/10/07 08:13:40;;;;;;;10.70;5.97;;;;;;;20.97;48.92;95934.41;5114866;28;20786;-77
2022/10/07 08:16:07;;;;;;;6.53;4.47;;;;;;;20.95;47.06;95940.94;5114907;28;20488;-78
2022/10/07 08:18:34;;;;;;;7.70;4.40;;;;;;;20.79;48.01;95931.09;5114712;28;20486;-77
2022/10/07 08:21:03;;;;;;;8.73;4.00;;;;;;;20.54;47.87;95932.09;5114934;28;20434;-77
2022/10/07 08:23:32;;;;;;;11.53;4.70;;;;;;;20.30;47.72;95931.03;5079700;28;20829;-78
2022/10/07 08:26:00;;;;;;;4.73;4.10;;;;;;;20.33;48.49;95924.56;5115002;28;20447;-78
2022/10/07 08:28:27;;;;;;;4.57;4.17;;;;;;;20.52;49.64;95921.56;5115046;28;20458;-78
2022/10/07 08:30:55;;;;;;;7.50;4.87;;;;;;;20.51;49.66;95916.41;5114747;28;20496;-77
2022/10/07 08:33:23;;;;;;;11.77;4.63;;;;;;;20.47;46.78;95915.91;5114619;28;20920;-77
2022/10/07 08:35:50;;;;;;;4.47;4.00;;;;;;;20.60;48.87;95910.09;5114928;28;20450;-77
2022/10/07 08:38:17;;;;;;;5.80;4.57;;;;;;;20.69;48.06;95909.09;5114570;28;20529;-78
2022/10/07 08:40:50;;;;;;;8.13;4.03;;;;;;;20.09;47.72;95906.69;5114922;28;20431;-77
2022/10/07 08:43:20;;;;;;;5.67;3.70;;;;;;;20.41;47.66;95904.09;5078698;28;20447;-77
2022/10/07 08:45:48;;;;;;;9.23;4.27;;;;;;;20.33;48.30;95897.88;5114403;28;20442;-77
2022/10/07 08:48:19;;;;;;;6.87;4.40;;;;;;;20.30;48.52;95903.56;5078265;28;20435;-77
2022/10/07 08:50:56;;;;;;;3.40;3.10;;;;;;;20.53;48.14;95901.06;5079281;28;20439;-77
2022/10/07 08:53:29;;;;;;;8.30;3.90;;;;;;;20.56;47.97;95892.78;5114216;28;20435;-78
2022/10/07 08:56:09;;;;;;;4.77;3.80;;;;;;;20.41;48.22;95900.59;5114339;28;20471;-77
2022/10/07 08:58:47;;;;;;;3.40;3.10;;;;;;;20.42;46.98;95896.91;5113799;28;20453;-77
2022/10/07 09:01:25;;;;;;;10.77;3.07;;;;;;;20.55;46.43;95891.94;5114731;28;20449;-78
2022/10/07 09:04:03;;;;;;;3.80;3.30;;;;;;;20.57;47.17;95881.09;5114131;28;20918;-78
2022/10/07 09:06:35;;;;;;;5.80;3.40;;;;;;;20.76;47.22;95882.56;5077672;28;20431;-77
2022/10/07 09:09:06;;;;;;;4.67;3.60;;;;;;;20.96;46.26;95876.72;5114345;28;20454;-78
2022/10/07 09:11:34;;;;;;;6.30;3.53;;;;;;;20.81;46.11;95861.56;5113540;28;20446;-77
2022/10/07 09:14:12;;;;;;;7.30;3.50;;;;;;;20.97;45.58;95869.53;5113934;28;20466;-79
2022/10/07 09:16:42;;;;;;;7.73;3.07;;;;;;;20.79;45.14;95866.22;5113672;28;20451;-78
2022/10/07 09:19:17;;;;;;;15.90;3.90;;;;;;;20.79;46.03;95864.38;5113581;28;20565;-77
2022/10/07 09:21:47;;;;;;;4.47;3.00;;;;;;;20.65;46.88;95865.09;5112719;28;20495;-78
2022/10/07 09:24:19;;;;;;;3.53;3.23;;;;;;;20.36;46.71;95868.22;5113859;28;20949;-78
2022/10/07 09:26:48;;;;;;;3.87;3.40;;;;;;;20.39;45.88;95858.06;5113789;28;20438;-78
2022/10/07 09:29:50;;;;;;;;;;;;;;;;;;;;;
2022/10/07 09:32:18;;;;;;;5.40;2.97;;;;;;;20.16;47.31;95853.53;5043773;28;20796;-77
2022/10/07 09:34:46;;;;;;;3.60;3.30;;;;;;;20.44;46.33;95846.09;5113412;28;20451;-77
2022/10/07 09:37:17;;;;;;;5.10;3.00;;;;;;;20.23;46.42;95855.38;5113334;28;20435;-78
2022/10/07 09:39:45;;;;;;;4.00;3.67;;;;;;;20.35;46.85;95843.41;5113188;28;20498;-77
2022/10/07 09:42:27;;;;;;;5.23;3.53;;;;;;;20.21;46.88;95852.03;5113235;28;20442;-77
2022/10/07 09:44:55;;;;;;;3.67;3.37;;;;;;;20.42;46.35;95843.59;5113312;28;20478;-77
2022/10/07 09:47:24;;;;;;;3.33;2.80;;;;;;;20.22;46.29;95836.88;5076937;28;20432;-77
2022/10/07 09:49:53;;;;;;;5.73;3.40;;;;;;;20.32;45.76;95835.75;5113053;28;20815;-78
2022/10/07 09:52:22;;;;;;;5.43;3.10;;;;;;;20.49;45.74;95827.75;5113054;28;20504;-78
2022/10/07 09:54:51;;;;;;;4.63;3.80;;;;;;;20.30;45.06;95828.91;5112796;28;20921;-78
2022/10/07 09:57:32;;;;;;;4.87;2.93;;;;;;;20.26;45.71;95839.09;5113069;28;20525;-77
2022/10/07 10:00:24;;;;;;;5.90;3.53;;;;;;;20.28;47.08;95823.75;5112720;28;20605;-77
2022/10/07 10:02:54;;;;;;;3.23;3.00;;;;;;;20.31;46.03;95825.25;5112987;28;20530;-78
2022/10/07 10:05:32;;;;;;;8.83;3.17;;;;;;;20.35;45.21;95808.75;5112688;28;20443;-77
2022/10/07 10:08:01;;;;;;;3.37;3.10;;;;;;;20.46;47.24;95806.75;5112997;28;20599;-77
2022/10/07 10:10:31;;;;;;;3.23;2.93;;;;;;;20.31;44.70;95801.25;5112908;28;20446;-78
2022/10/07 10:13:01;;;;;;;3.20;3.00;;;;;;;20.41;46.06;95799.28;5112885;28;20443;-78
2022/10/07 10:15:38;;;;;;;3.10;2.80;;;;;;;20.54;47.01;95796.94;5076735;28;20435;-77
2022/10/07 10:18:30;;;;;;;2.53;2.33;;;;;;;20.65;45.08;95788.56;5112508;28;20534;-78
2022/10/07 10:21:15;;;;;;;8.43;3.50;;;;;;;20.53;43.91;95781.06;5112770;28;20488;-77
2022/10/07 10:23:46;;;;;;;4.37;2.63;;;;;;;20.50;44.67;95787.59;5113029;28;20479;-78
2022/10/07 10:26:44;;;;;;;3.30;3.00;;;;;;;20.60;45.18;95784.75;5112554;28;20921;-77
2022/10/07 10:29:22;;;;;;;14.77;4.90;;;;;;;20.59;46.23;95778.59;5112893;28;20443;-78
2022/10/07 10:32:08;;;;;;;7.20;3.60;;;;;;;20.59;46.27;95775.91;5076491;28;20446;-78
2022/10/07 10:34:43;;;;;;;4.87;3.70;;;;;;;20.39;47.13;95778.09;5112561;28;20453;-77
2022/10/07 10:37:17;;;;;;;5.63;3.70;;;;;;;20.44;45.77;95769.59;5112431;28;20450;-78
2022/10/07 10:40:02;;;;;;;7.40;3.60;;;;;;;20.49;46.09;95769.09;5112216;28;20579;-78
2022/10/07 10:42:44;;;;;;;9.43;4.27;;;;;;;20.35;46.49;95767.94;5112231;28;20453;-78
2022/10/07 10:45:25;;;;;;;3.80;3.50;;;;;;;20.30;45.92;95765.78;5112221;28;20874;-78
2022/10/07 10:48:12;;;;;;;7.00;4.20;;;;;;;20.36;46.04;95754.44;5112414;28;20515;-78
2022/10/07 10:50:47;;;;;;;4.90;3.67;;;;;;;20.40;45.74;95755.78;5059369;28;20446;-78
2022/10/07 10:53:24;;;;;;;5.07;4.13;;;;;;;20.34;45.91;95761.75;5112188;28;20551;-78
2022/10/07 10:56:19;;;;;;;5.17;3.77;;;;;;;20.36;46.33;95765.09;5078396;28;20476;-77
2022/10/07 10:58:58;;;;;;;6.87;3.93;;;;;;;20.44;45.37;95752.78;5029154;28;20449;-78
2022/10/07 11:01:33;;;;;;;8.57;3.70;;;;;;;20.55;45.79;95741.78;5029414;28;20842;-78
2022/10/07 11:04:19;;;;;;;5.03;4.03;;;;;;;20.68;45.23;95734.88;5029400;28;20438;-77
2022/10/07 11:06:50;;;;;;;5.67;3.83;;;;;;;20.84;44.24;95727.84;5013644;28;20451;-77
2022/10/07 11:09:21;;;;;;;4.03;3.30;;;;;;;20.94;44.09;95731.13;4996488;28;21053;-78
2022/10/07 11:11:49;;;;;;;8.27;3.70;;;;;;;21.01;45.31;95729.41;5029349;28;20443;-77
2022/10/07 11:14:21;;;;;;;4.77;3.60;;;;;;;21.13;43.58;95720.03;5029264;28;20845;-78
2022/10/07 11:16:55;;;;;;;4.13;3.60;;;;;;;21.14;43.04;95723.53;4996495;28;20447;-78
2022/10/07 11:19:26;;;;;;;6.60;3.73;;;;;;;20.97;43.42;95722.78;5029213;28;20446;-78
2022/10/07 11:21:56;;;;;;;3.83;3.13;;;;;;;20.88;45.41;95716.66;5029076;28;20443;-78
2022/10/07 11:24:29;;;;;;;3.60;2.97;;;;;;;20.96;43.83;95711.25;5029010;28;20443;-77
2022/10/07 11:27:04;;;;;;;4.20;3.13;;;;;;;20.92;43.79;95717.97;5029023;28;20442;-77
2022/10/07 11:29:39;;;;;;;3.47;3.17;;;;;;;20.87;44.20;95709.66;5029089;28;20477;-78
2022/10/07 11:32:15;;;;;;;4.30;3.10;;;;;;;20.83;44.78;95716.34;5029398;28;20848;-77
2022/10/07 11:34:47;;;;;;;6.70;3.20;;;;;;;20.77;44.35;95709.00;5028908;28;20949;-77
2022/10/07 11:37:19;;;;;;;4.63;3.80;;;;;;;20.76;46.46;95702.00;5109022;28;20529;-77
2022/10/07 11:39:46;;;;;;;4.00;3.47;;;;;;;20.77;43.99;95701.00;5111827;28;20543;-78
2022/10/07 11:42:17;;;;;;;3.50;3.20;;;;;;;20.79;44.04;95696.31;5111809;28;20933;-78
2022/10/07 11:44:54;;;;;;;4.70;3.90;;;;;;;20.81;46.56;95696.16;5114263;28;20451;-78
2022/10/07 11:47:27;;;;;;;3.47;3.17;;;;;;;20.87;43.92;95690.16;5115539;28;20492;-77
2022/10/07 11:50:01;;;;;;;3.90;3.50;;;;;;;20.79;43.75;95688.31;5115533;28;20439;-78
2022/10/07 11:52:31;;;;;;;4.20;3.03;;;;;;;20.89;44.76;95677.47;5080872;28;20545;-78
2022/10/07 11:55:03;;;;;;;4.73;3.30;;;;;;;20.87;43.56;95685.63;5115221;28;20436;-78